Time;durP1;ratioP1;P1;durP2;ratioP2;P2;SDS_P1;SDS_P2;PMS_P1;PMS_P2;Temp;Humidity;BMP_temperature;BMP_pressure;BME280_temperature;BME280_humidity;BME280_pressure;Samples;Min_cycle;Max_cycle;Signal;HPM_P1;HPM_P2
2023/06/22 00:00:26;;;;;;;5.30;3.80;;;;;;;19.27;77.98;101692.69;5224194;28;20041;-66
2023/06/22 00:02:58;;;;;;;5.47;4.03;;;;;;;19.13;78.05;101687.03;5224734;28;20037;-66
2023/06/22 00:05:29;;;;;;;;;;;;;;;19.38;74.70;101683.50;5224463;28;20141;-66
2023/06/22 00:08:04;;;;;;;6.38;4.13;;;;;;;19.02;78.31;101682.09;5224055;28;20374;-66
2023/06/22 00:10:36;;;;;;;7.68;4.70;;;;;;;19.08;78.76;101689.81;5223906;28;20029;-66
2023/06/22 00:13:08;;;;;;;6.75;4.38;;;;;;;19.06;79.66;101693.41;5224284;28;20132;-66
2023/06/22 00:15:41;;;;;;;6.40;4.05;;;;;;;18.89;80.19;101694.84;5223811;28;20085;-66
2023/06/22 00:18:13;;;;;;;5.63;3.90;;;;;;;18.86;80.15;101683.53;5222525;28;20097;-66
2023/06/22 00:20:45;;;;;;;5.50;4.50;;;;;;;18.72;80.54;101681.28;5223783;28;20022;-66
2023/06/22 00:23:17;;;;;;;11.32;4.47;;;;;;;18.79;80.85;101688.13;5223524;28;20076;-66
2023/06/22 00:25:49;;;;;;;5.03;4.35;;;;;;;18.75;81.42;101679.41;5223440;28;20026;-67
2023/06/22 00:28:21;;;;;;;5.65;4.47;;;;;;;18.52;81.13;101690.72;5223608;28;20531;-65
2023/06/22 00:30:52;;;;;;;6.87;4.90;;;;;;;18.58;80.59;101689.69;5206127;28;20030;-68
2023/06/22 00:33:23;;;;;;;7.33;5.43;;;;;;;18.51;80.86;101691.63;5223787;28;20030;-67
2023/06/22 00:35:55;;;;;;;5.80;5.10;;;;;;;18.34;81.31;101686.88;5223532;28;20034;-67
2023/06/22 00:38:26;;;;;;;9.80;6.10;;;;;;;18.36;82.11;101690.34;5223715;28;20029;-67
2023/06/22 00:40:57;;;;;;;9.53;5.17;;;;;;;18.29;82.26;101678.25;5223629;28;20033;-67
2023/06/22 00:43:29;;;;;;;6.73;4.70;;;;;;;18.27;82.58;101679.19;5223328;28;20037;-67
2023/06/22 00:46:00;;;;;;;6.27;4.90;;;;;;;18.26;83.41;101680.09;5223361;28;20075;-67
2023/06/22 00:48:32;;;;;;;6.77;5.20;;;;;;;18.22;82.93;101684.63;5223265;28;20427;-67
2023/06/22 00:51:03;;;;;;;5.90;5.07;;;;;;;18.10;83.17;101675.31;5223376;28;20030;-67
2023/06/22 00:53:36;;;;;;;7.47;5.33;;;;;;;18.12;83.71;101673.47;5223102;28;20652;-66
2023/06/22 00:56:08;;;;;;;7.22;6.07;;;;;;;17.89;83.34;101686.47;5222887;28;20117;-66
2023/06/22 00:58:41;;;;;;;6.60;5.47;;;;;;;17.80;83.50;101677.88;5222397;28;20105;-67
2023/06/22 01:01:14;;;;;;;6.68;5.55;;;;;;;17.79;84.15;101675.28;5221661;28;20026;-66
2023/06/22 01:03:46;;;;;;;5.63;4.80;;;;;;;17.83;84.95;101669.03;5221539;28;20118;-66
2023/06/22 01:06:26;;;;;;;8.05;5.75;;;;;;;17.77;85.04;101671.84;5223131;28;20129;-66
2023/06/22 01:09:08;;;;;;;9.38;6.03;;;;;;;17.81;85.78;101677.00;5223041;28;20513;-66
2023/06/22 01:11:45;;;;;;;8.20;6.13;;;;;;;17.64;86.30;101671.31;5223049;28;20508;-66
2023/06/22 01:14:26;;;;;;;6.63;5.45;;;;;;;17.72;86.49;101669.34;5221896;28;20112;-66
2023/06/22 01:17:01;;;;;;;10.18;6.63;;;;;;;17.68;86.30;101670.34;5223169;28;20033;-67
2023/06/22 01:19:56;;;;;;;8.73;6.05;;;;;;;17.73;86.78;101675.50;5221103;28;20034;-66
2023/06/22 01:22:33;;;;;;;7.45;6.55;;;;;;;17.72;86.20;101674.59;5222847;28;20026;-66
2023/06/22 01:25:11;;;;;;;9.27;6.15;;;;;;;17.70;86.94;101679.06;5222847;28;20416;-66
2023/06/22 01:28:04;;;;;;;9.88;6.63;;;;;;;17.82;86.46;101680.47;5222630;28;20062;-66
2023/06/22 01:30:39;;;;;;;9.55;6.95;;;;;;;17.92;85.92;101675.84;5222370;28;20037;-67
2023/06/22 01:33:13;;;;;;;8.57;6.85;;;;;;;17.93;86.63;101675.78;5222264;28;20492;-67
2023/06/22 01:35:44;;;;;;;7.65;6.18;;;;;;;17.99;86.77;101680.03;5222328;28;20025;-66
2023/06/22 01:38:16;;;;;;;8.30;6.90;;;;;;;18.03;85.30;101674.63;5222620;28;20492;-66
2023/06/22 01:40:48;;;;;;;8.60;6.47;;;;;;;17.88;85.65;101667.16;5220798;28;20041;-66
2023/06/22 01:43:23;;;;;;;9.35;6.47;;;;;;;17.86;86.34;101661.88;5220972;28;20042;-66
2023/06/22 01:45:55;;;;;;;9.43;7.38;;;;;;;17.82;86.85;101662.91;5222317;28;20070;-67
2023/06/22 01:48:27;;;;;;;9.15;6.45;;;;;;;17.97;87.45;101673.94;5222059;28;20033;-66
2023/06/22 01:50:59;;;;;;;7.78;6.97;;;;;;;17.99;86.88;101666.84;5221793;28;20083;-66
2023/06/22 01:53:30;;;;;;;9.50;6.87;;;;;;;17.91;87.93;101668.84;5222250;28;20036;-66
2023/06/22 01:56:02;;;;;;;8.53;6.83;;;;;;;17.83;87.50;101664.63;5222122;28;20033;-66
2023/06/22 01:58:36;;;;;;;8.40;7.23;;;;;;;17.74;88.01;101670.19;5222056;28;20388;-66
2023/06/22 02:01:13;;;;;;;8.25;7.35;;;;;;;17.61;88.16;101660.88;5222406;28;20041;-66
2023/06/22 02:03:51;;;;;;;8.43;7.28;;;;;;;17.76;87.84;101668.34;5220333;28;20030;-66
2023/06/22 02:06:35;;;;;;;9.02;7.22;;;;;;;17.78;89.10;101658.63;5221685;28;20117;-66
2023/06/22 02:09:11;;;;;;;7.88;7.07;;;;;;;17.73;88.18;101652.63;5221593;28;20030;-66
2023/06/22 02:11:45;;;;;;;8.10;7.25;;;;;;;17.70;88.19;101655.34;5221541;28;20030;-66
2023/06/22 02:14:17;;;;;;;8.80;7.72;;;;;;;17.68;88.34;101660.66;5221524;28;20454;-66
2023/06/22 02:16:51;;;;;;;8.23;7.32;;;;;;;17.69;89.59;101661.50;5221609;28;20030;-66
2023/06/22 02:19:24;;;;;;;10.32;8.02;;;;;;;17.63;89.36;101665.19;5221797;28;20096;-66
2023/06/22 02:21:56;;;;;;;8.90;7.72;;;;;;;17.71;89.31;101664.09;5221459;28;20453;-66
2023/06/22 02:24:30;;;;;;;10.25;7.70;;;;;;;17.50;90.54;101662.03;5221132;28;20040;-66
2023/06/22 02:27:02;;;;;;;8.18;7.32;;;;;;;17.47;90.46;101664.75;5221300;28;20069;-66
2023/06/22 02:29:34;;;;;;;8.35;7.28;;;;;;;17.48;91.11;101650.69;5220124;28;20121;-66
2023/06/22 02:32:05;;;;;;;10.10;8.03;;;;;;;17.28;90.92;101647.72;5220890;28;20026;-66
2023/06/22 02:34:37;;;;;;;10.57;8.13;;;;;;;17.27;92.11;101636.31;5221238;28;20026;-66
2023/06/22 02:37:12;;;;;;;9.60;8.60;;;;;;;17.21;91.46;101635.59;5221252;28;20277;-66
2023/06/22 02:39:44;;;;;;;10.38;7.88;;;;;;;17.26;91.83;101639.00;5221106;28;20026;-66
2023/06/22 02:42:15;;;;;;;11.37;8.80;;;;;;;17.16;92.48;101640.13;5221670;28;20026;-65
2023/06/22 02:44:46;;;;;;;11.53;9.00;;;;;;;17.16;92.42;101637.50;5203757;28;20026;-65
2023/06/22 02:47:18;;;;;;;11.77;9.17;;;;;;;17.23;93.54;101634.69;5219869;28;20088;-66
2023/06/22 02:49:49;;;;;;;12.83;10.77;;;;;;;17.14;93.27;101632.28;5221910;28;20029;-65
2023/06/22 02:52:20;;;;;;;11.50;10.40;;;;;;;17.08;93.08;101627.16;5221003;28;20122;-65
2023/06/22 02:54:52;;;;;;;11.27;10.07;;;;;;;17.07;94.26;101634.22;5221066;28;20045;-66
2023/06/22 02:57:23;;;;;;;11.47;9.37;;;;;;;16.97;93.94;101632.75;5221431;28;20037;-66
2023/06/22 02:59:55;;;;;;;11.70;9.43;;;;;;;16.93;95.56;101631.06;5219920;28;20044;-65
2023/06/22 03:02:27;;;;;;;12.20;8.80;;;;;;;16.93;95.24;101626.66;5220906;28;20062;-65
2023/06/22 03:05:01;;;;;;;;;;;;;;;17.06;92.33;101634.25;5221280;28;20539;-66
2023/06/22 03:07:32;;;;;;;13.32;9.13;;;;;;;16.87;94.64;101616.31;5220795;28;19924;-66
2023/06/22 03:10:04;;;;;;;11.23;9.20;;;;;;;16.82;95.09;101612.03;5220980;28;20030;-66
2023/06/22 03:12:37;;;;;;;10.63;9.20;;;;;;;16.71;95.45;101612.28;5220705;28;20036;-66
2023/06/22 03:15:11;;;;;;;11.40;9.75;;;;;;;16.70;96.61;101608.78;5220727;28;20056;-66
2023/06/22 03:17:43;;;;;;;11.90;9.50;;;;;;;16.68;97.10;101605.34;5220813;28;20113;-66
2023/06/22 03:20:14;;;;;;;11.20;10.03;;;;;;;16.61;97.05;101611.66;5220728;28;20563;-66
2023/06/22 03:22:46;;;;;;;11.80;9.97;;;;;;;16.61;97.41;101609.03;5224293;28;20083;-66
2023/06/22 03:25:17;;;;;;;12.13;10.50;;;;;;;16.65;97.89;101601.94;5223595;28;20026;-67
2023/06/22 03:27:48;;;;;;;15.13;10.87;;;;;;;16.56;97.82;101601.22;5224577;28;20057;-66
2023/06/22 03:30:20;;;;;;;14.53;10.53;;;;;;;16.65;98.62;101596.66;5223607;28;20452;-66
2023/06/22 03:32:51;;;;;;;12.20;11.00;;;;;;;16.54;98.71;101599.56;5224607;28;20473;-67
2023/06/22 03:35:22;;;;;;;12.80;11.03;;;;;;;16.58;98.29;101599.44;5224731;28;20034;-67
2023/06/22 03:37:54;;;;;;;12.13;10.83;;;;;;;16.53;98.47;101605.72;5223803;28;20358;-67
2023/06/22 03:40:25;;;;;;;11.53;10.43;;;;;;;16.48;98.78;101603.19;5223289;28;20376;-67
2023/06/22 03:42:56;;;;;;;12.93;11.70;;;;;;;16.53;99.60;101589.94;5224624;28;20141;-67
2023/06/22 03:45:28;;;;;;;12.57;11.33;;;;;;;16.44;99.73;101595.41;5224568;28;20065;-67
2023/06/22 03:48:01;;;;;;;14.47;12.10;;;;;;;16.45;100.00;101597.16;5225036;28;20072;-67
2023/06/22 03:50:32;;;;;;;13.52;11.65;;;;;;;16.46;99.78;101588.34;5224476;28;20026;-67
2023/06/22 03:53:03;;;;;;;12.53;11.30;;;;;;;16.43;100.00;101594.56;5223234;28;20030;-67
2023/06/22 03:55:35;;;;;;;14.83;12.07;;;;;;;16.44;100.00;101591.03;5224409;28;20140;-67
2023/06/22 03:58:06;;;;;;;13.63;12.23;;;;;;;16.39;100.00;101591.13;5224395;28;20113;-66
2023/06/22 04:00:38;;;;;;;13.40;12.13;;;;;;;16.37;100.00;101590.31;5224561;28;20038;-68
2023/06/22 04:03:09;;;;;;;14.00;12.60;;;;;;;16.38;100.00;101586.75;5224069;28;20057;-67
2023/06/22 04:05:41;;;;;;;14.37;12.87;;;;;;;16.45;100.00;101591.88;5224503;28;20080;-67
2023/06/22 04:08:13;;;;;;;15.30;12.40;;;;;;;16.54;100.00;101603.03;5222625;28;20042;-67
2023/06/22 04:10:45;;;;;;;;;;;;;;;16.64;99.44;101581.78;5224303;28;20036;-67
2023/06/22 04:13:16;;;;;;;15.10;12.35;;;;;;;16.75;100.00;101585.00;5223624;28;20388;-67
2023/06/22 04:15:47;;;;;;;13.90;12.03;;;;;;;16.78;100.00;101587.53;5224506;28;20417;-67
2023/06/22 04:18:19;;;;;;;15.37;13.30;;;;;;;16.72;100.00;101588.56;5223644;28;20030;-66
2023/06/22 04:20:50;;;;;;;14.27;12.77;;;;;;;16.76;100.00;101587.59;5223700;28;20034;-67
2023/06/22 04:23:21;;;;;;;13.23;11.93;;;;;;;16.86;100.00;101584.75;5224313;28;20033;-66
2023/06/22 04:25:53;;;;;;;15.23;13.20;;;;;;;16.82;100.00;101596.22;5223725;28;20029;-67
2023/06/22 04:28:24;;;;;;;17.53;13.40;;;;;;;16.84;100.00;101591.78;5224440;28;20060;-66
2023/06/22 04:30:58;;;;;;;15.27;12.90;;;;;;;16.90;100.00;101591.66;5224052;28;20030;-66
2023/06/22 04:33:29;;;;;;;14.48;13.18;;;;;;;16.97;99.43;101598.50;5223366;28;20285;-65
2023/06/22 04:36:01;;;;;;;16.90;13.63;;;;;;;17.16;100.00;101587.44;5223951;28;20026;-67
2023/06/22 04:38:35;;;;;;;14.37;12.87;;;;;;;17.25;98.93;101598.59;5224269;28;20113;-67
2023/06/22 04:41:06;;;;;;;15.05;13.48;;;;;;;17.44;98.36;101593.69;5223309;28;20041;-67
2023/06/22 04:43:37;;;;;;;14.67;13.00;;;;;;;17.49;97.29;101599.69;5223946;28;20445;-67
2023/06/22 04:46:09;;;;;;;13.87;12.57;;;;;;;17.49;96.13;101597.03;5222405;28;20037;-66
2023/06/22 04:48:40;;;;;;;14.67;13.17;;;;;;;17.61;95.74;101597.59;5223596;28;20062;-66
2023/06/22 04:51:12;;;;;;;18.77;13.23;;;;;;;17.70;94.79;101602.59;5223481;28;20358;-66
2023/06/22 04:53:43;;;;;;;17.17;13.15;;;;;;;17.80;94.07;101601.41;5223375;28;20046;-66
2023/06/22 04:56:17;;;;;;;15.80;12.80;;;;;;;17.86;94.03;101603.88;5222147;28;20072;-66
2023/06/22 04:58:48;;;;;;;16.92;15.02;;;;;;;17.97;94.03;101595.66;5223301;28;20489;-66
2023/06/22 05:01:22;;;;;;;15.43;13.97;;;;;;;18.04;93.83;101601.63;5221819;28;20101;-66
2023/06/22 05:03:56;;;;;;;15.57;13.98;;;;;;;18.09;93.20;101602.31;5223198;28;20133;-66
2023/06/22 05:06:28;;;;;;;15.95;14.20;;;;;;;18.15;93.05;101602.13;5221893;28;20373;-66
2023/06/22 05:08:59;;;;;;;20.40;13.93;;;;;;;18.25;92.75;101594.78;5223186;28;20040;-66
2023/06/22 05:11:30;;;;;;;15.30;13.70;;;;;;;18.25;92.77;101586.88;5222878;28;20069;-66
2023/06/22 05:14:02;;;;;;;14.83;13.20;;;;;;;18.35;92.90;101587.44;5223529;28;20069;-66
2023/06/22 05:16:34;;;;;;;16.33;14.60;;;;;;;18.42;92.20;101596.91;5224200;28;20145;-66
2023/06/22 05:19:05;;;;;;;15.67;14.07;;;;;;;18.49;92.66;101597.56;5221662;28;20026;-65
2023/06/22 05:21:37;;;;;;;16.00;14.43;;;;;;;18.52;92.04;101602.75;5222841;28;20088;-65
2023/06/22 05:24:08;;;;;;;17.58;15.73;;;;;;;18.48;91.48;101609.03;5222774;28;20107;-65
2023/06/22 05:26:39;;;;;;;17.30;15.50;;;;;;;18.50;91.80;101597.50;5222814;28;20028;-65
2023/06/22 05:29:11;;;;;;;16.93;15.33;;;;;;;18.62;92.62;101601.50;5221658;28;20034;-66
2023/06/22 05:31:42;;;;;;;19.23;15.40;;;;;;;18.75;92.73;101599.31;5222546;28;20060;-66
2023/06/22 05:34:13;;;;;;;16.77;15.07;;;;;;;18.72;92.00;101594.13;5221666;28;20034;-67
2023/06/22 05:36:45;;;;;;;16.77;15.17;;;;;;;18.73;91.63;101585.31;5222917;28;20108;-66
2023/06/22 05:39:16;;;;;;;18.90;16.77;;;;;;;18.66;92.04;101589.94;5222996;28;20030;-66
2023/06/22 05:41:48;;;;;;;17.13;15.40;;;;;;;18.66;92.47;101579.38;5222765;28;20449;-66
2023/06/22 05:44:19;;;;;;;19.20;17.27;;;;;;;18.61;92.66;101580.44;5204984;28;20038;-66
2023/06/22 05:46:51;;;;;;;20.37;17.13;;;;;;;18.71;92.60;101579.22;5222650;28;20026;-67
2023/06/22 05:49:23;;;;;;;20.73;17.33;;;;;;;18.79;92.76;101590.38;5222518;28;20123;-66
2023/06/22 05:51:54;;;;;;;20.90;17.50;;;;;;;18.97;92.21;101594.19;5222547;28;20022;-66
2023/06/22 05:54:27;;;;;;;17.97;16.13;;;;;;;19.07;91.50;101598.22;5222317;28;20041;-66
2023/06/22 05:56:59;;;;;;;18.42;16.52;;;;;;;19.14;91.50;101590.94;5222074;28;20021;-67
2023/06/22 05:59:30;;;;;;;18.00;16.20;;;;;;;19.18;91.04;101583.78;5222307;28;20048;-66
2023/06/22 06:02:01;;;;;;;22.83;17.13;;;;;;;19.29;90.62;101592.19;5222023;28;20473;-66
2023/06/22 06:04:33;;;;;;;17.00;15.47;;;;;;;19.39;90.11;101596.22;5222390;28;20034;-66
2023/06/22 06:07:04;;;;;;;18.47;16.87;;;;;;;19.52;90.15;101591.31;5220832;28;20069;-66
2023/06/22 06:09:35;;;;;;;18.97;16.90;;;;;;;19.56;90.27;101594.72;5221617;28;20120;-66
2023/06/22 06:12:07;;;;;;;18.67;16.93;;;;;;;19.62;89.45;101589.19;5221566;28;20062;-65
2023/06/22 06:14:39;;;;;;;18.95;17.00;;;;;;;19.76;89.93;101583.44;5221688;28;20217;-66
2023/06/22 06:17:10;;;;;;;19.03;17.23;;;;;;;19.82;88.55;101583.19;5222346;28;20033;-67
2023/06/22 06:19:41;;;;;;;19.90;17.80;;;;;;;19.91;88.71;101579.31;5221591;28;20033;-65
2023/06/22 06:22:13;;;;;;;19.27;17.40;;;;;;;19.97;87.91;101587.88;5220791;28;20034;-66
2023/06/22 06:24:45;;;;;;;19.23;17.37;;;;;;;20.06;87.48;101594.59;5221879;28;20038;-66
2023/06/22 06:27:19;;;;;;;18.35;16.30;;;;;;;20.07;87.36;101604.25;5221799;28;20470;-67
2023/06/22 06:29:50;;;;;;;19.42;17.58;;;;;;;20.09;87.66;101602.38;5221216;28;20045;-67
2023/06/22 06:32:22;;;;;;;18.93;16.97;;;;;;;20.19;86.70;101589.69;5220315;28;20397;-65
2023/06/22 06:34:53;;;;;;;17.53;15.73;;;;;;;20.29;87.96;101587.50;5222098;28;20484;-66
2023/06/22 06:37:24;;;;;;;18.67;16.97;;;;;;;20.38;86.28;101588.00;5221848;28;20091;-65
2023/06/22 06:39:56;;;;;;;18.13;16.27;;;;;;;20.43;85.32;101589.56;5220266;28;20025;-67
2023/06/22 06:42:27;;;;;;;17.90;16.17;;;;;;;20.51;85.60;101587.47;5220308;28;20069;-66
2023/06/22 06:44:59;;;;;;;18.03;16.10;;;;;;;20.65;85.23;101581.63;5220357;28;20033;-66
2023/06/22 06:47:30;;;;;;;18.37;16.43;;;;;;;20.73;84.49;101590.13;5221573;28;20038;-66
2023/06/22 06:50:02;;;;;;;18.27;16.33;;;;;;;20.80;83.43;101591.59;5221942;28;20037;-66
2023/06/22 06:52:34;;;;;;;19.20;17.17;;;;;;;20.80;83.58;101596.00;5221562;28;20124;-66
2023/06/22 06:55:08;;;;;;;18.63;16.58;;;;;;;20.80;83.53;101596.00;5221326;28;20061;-66
2023/06/22 06:57:40;;;;;;;33.30;19.77;;;;;;;20.71;83.87;101589.31;5220769;28;20030;-66
2023/06/22 07:00:13;;;;;;;21.63;17.98;;;;;;;20.70;84.92;101591.09;5221883;28;20164;-66
2023/06/22 07:02:47;;;;;;;20.67;17.45;;;;;;;20.64;85.52;101596.69;5221540;28;20030;-66
2023/06/22 07:05:19;;;;;;;18.65;16.75;;;;;;;20.64;84.86;101591.38;5221199;28;20030;-66
2023/06/22 07:07:50;;;;;;;19.37;17.20;;;;;;;20.79;84.61;101586.34;5221845;28;20037;-66
2023/06/22 07:10:21;;;;;;;20.40;17.53;;;;;;;20.67;84.15;101580.66;5221157;28;20269;-67
2023/06/22 07:12:53;;;;;;;19.50;17.57;;;;;;;20.71;84.52;101581.38;5221388;28;20022;-66
2023/06/22 07:15:25;;;;;;;18.30;16.43;;;;;;;20.79;85.44;101581.91;5221042;28;20049;-66
2023/06/22 07:17:56;;;;;;;18.13;16.27;;;;;;;20.73;83.84;101582.16;5221399;28;20025;-66
2023/06/22 07:20:27;;;;;;;20.07;18.10;;;;;;;20.68;83.73;101582.34;5221143;28;20033;-66
2023/06/22 07:22:59;;;;;;;19.00;16.83;;;;;;;20.70;85.77;101580.50;5221436;28;20034;-66
2023/06/22 07:25:30;;;;;;;19.07;17.20;;;;;;;20.76;84.12;101588.19;5219850;28;20061;-66
2023/06/22 07:28:04;;;;;;;19.57;17.57;;;;;;;20.83;83.23;101595.88;5221564;28;20073;-66
2023/06/22 07:30:35;;;;;;;20.00;18.13;;;;;;;20.88;82.81;101586.81;5220131;28;20033;-66
2023/06/22 07:33:08;;;;;;;18.63;16.87;;;;;;;20.83;83.37;101590.56;5221204;28;20393;-67
2023/06/22 07:35:39;;;;;;;19.88;17.58;;;;;;;20.73;83.55;101583.00;5220815;28;20083;-67
2023/06/22 07:38:11;;;;;;;21.00;19.00;;;;;;;20.75;82.97;101578.53;5220882;28;20025;-67
2023/06/22 07:40:42;;;;;;;21.17;18.30;;;;;;;20.80;83.97;101572.16;5221115;28;20034;-66
2023/06/22 07:43:13;;;;;;;21.00;18.93;;;;;;;20.80;85.28;101561.56;5219687;28;20030;-67
2023/06/22 07:45:55;;;;;;;19.83;18.03;;;;;;;20.94;86.02;101553.88;5220113;28;20549;-66
2023/06/22 07:48:26;;;;;;;24.52;18.92;;;;;;;20.95;86.39;101556.47;5221369;28;20408;-66
2023/06/22 07:50:58;;;;;;;22.00;19.85;;;;;;;21.04;86.48;101539.31;5219838;28;20030;-67
2023/06/22 07:53:29;;;;;;;20.97;19.03;;;;;;;21.11;86.94;101535.44;5219425;28;20528;-66
2023/06/22 07:56:01;;;;;;;21.47;19.40;;;;;;;21.29;87.55;101527.56;5221148;28;20481;-66
2023/06/22 07:58:33;;;;;;;21.95;19.58;;;;;;;21.46;86.09;101526.78;5220798;28;20036;-66
2023/06/22 08:01:04;;;;;;;21.83;19.58;;;;;;;21.46;84.42;101513.50;5219957;28;20049;-66
2023/06/22 08:03:36;;;;;;;21.47;19.03;;;;;;;21.55;84.68;101509.63;5220651;28;20037;-67
2023/06/22 08:06:09;;;;;;;21.13;19.07;;;;;;;21.68;84.37;101506.28;5219641;28;20038;-66
2023/06/22 08:08:40;;;;;;;22.58;19.50;;;;;;;21.74;83.79;101491.88;5222072;28;20030;-67
2023/06/22 08:11:11;;;;;;;22.43;18.33;;;;;;;21.97;82.17;101493.38;5224259;28;20092;-66
2023/06/22 08:13:43;;;;;;;18.60;16.50;;;;;;;21.93;80.82;101485.66;5222922;28;20057;-66
2023/06/22 08:16:15;;;;;;;20.38;17.33;;;;;;;22.07;79.14;101487.63;5224395;28;20046;-67
2023/06/22 08:18:46;;;;;;;17.23;15.43;;;;;;;22.11;78.54;101484.75;5222822;28;20064;-66
2023/06/22 08:21:17;;;;;;;19.67;17.27;;;;;;;22.01;78.19;101483.50;5222811;28;20469;-67
2023/06/22 08:23:49;;;;;;;18.40;16.50;;;;;;;22.03;80.28;101487.78;5222809;28;20033;-66
2023/06/22 08:26:21;;;;;;;17.77;15.97;;;;;;;22.01;79.21;101484.34;5223799;28;20030;-67
2023/06/22 08:28:53;;;;;;;17.95;16.08;;;;;;;21.99;79.44;101480.94;5224339;28;20600;-67
2023/06/22 08:31:24;;;;;;;18.10;16.43;;;;;;;21.92;79.33;101484.81;5223739;28;20026;-66
2023/06/22 08:33:55;;;;;;;19.03;17.00;;;;;;;22.00;79.85;101487.09;5223566;28;20026;-66
2023/06/22 08:36:32;;;;;;;19.43;16.30;;;;;;;21.99;79.13;101485.34;5222545;28;20034;-65
2023/06/22 08:39:03;;;;;;;18.25;16.33;;;;;;;21.91;79.66;101490.19;5223562;28;20037;-66
2023/06/22 08:41:35;;;;;;;18.60;16.70;;;;;;;21.87;79.80;101484.19;5223538;28;20034;-67
2023/06/22 08:44:06;;;;;;;16.30;14.60;;;;;;;21.88;81.98;101487.69;5222624;28;20038;-66
2023/06/22 08:46:40;;;;;;;18.60;16.40;;;;;;;21.88;80.17;101485.91;5222819;28;20034;-66
2023/06/22 08:49:11;;;;;;;16.05;14.35;;;;;;;21.94;81.81;101479.41;5222179;28;20076;-66
2023/06/22 08:51:44;;;;;;;16.90;15.23;;;;;;;21.92;78.33;101473.34;5223682;28;20077;-66
2023/06/22 08:54:15;;;;;;;16.58;14.88;;;;;;;21.89;79.09;101484.09;5223689;28;20357;-66
2023/06/22 08:56:47;;;;;;;19.87;15.47;;;;;;;21.83;79.17;101471.97;5223165;28;20037;-66
2023/06/22 08:59:18;;;;;;;14.90;13.50;;;;;;;21.80;78.95;101472.13;5223696;28;20160;-66
2023/06/22 09:01:50;;;;;;;17.30;14.07;;;;;;;21.88;78.39;101463.78;5223370;28;20080;-66
2023/06/22 09:04:24;;;;;;;15.93;14.37;;;;;;;21.95;79.80;101463.41;5223533;28;20199;-66
2023/06/22 09:06:55;;;;;;;16.23;14.20;;;;;;;22.06;79.55;101462.00;5223257;28;20033;-65
2023/06/22 09:09:27;;;;;;;16.33;13.77;;;;;;;21.99;78.43;101464.13;5206104;28;20452;-67
2023/06/22 09:11:58;;;;;;;15.98;14.43;;;;;;;22.03;77.63;101461.22;5222962;28;20389;-66
2023/06/22 09:14:29;;;;;;;15.57;14.13;;;;;;;22.12;77.36;101454.63;5222136;28;20446;-66
2023/06/22 09:17:01;;;;;;;15.23;12.93;;;;;;;22.10;78.28;101445.00;5222985;28;20045;-66
2023/06/22 09:19:32;;;;;;;15.47;13.53;;;;;;;22.18;76.81;101454.28;5222212;28;20273;-66
2023/06/22 09:22:06;;;;;;;13.82;12.35;;;;;;;22.28;74.81;101454.69;5223190;28;20472;-66
2023/06/22 09:24:37;;;;;;;13.48;12.07;;;;;;;22.41;74.12;101452.25;5222528;28;20057;-66
2023/06/22 09:27:08;;;;;;;12.60;11.30;;;;;;;22.55;74.38;101446.25;5222887;28;20447;-66
2023/06/22 09:29:40;;;;;;;14.30;11.50;;;;;;;22.61;70.42;101455.69;5221597;28;20048;-66
2023/06/22 09:32:11;;;;;;;11.97;10.67;;;;;;;22.65;68.54;101462.56;5221445;28;20076;-66
2023/06/22 09:34:43;;;;;;;16.03;10.67;;;;;;;22.75;67.97;101466.47;5221954;28;20037;-67
2023/06/22 09:37:14;;;;;;;11.63;10.53;;;;;;;22.83;69.21;101464.25;5222529;28;20037;-67
2023/06/22 09:39:45;;;;;;;10.97;9.77;;;;;;;22.93;69.17;101462.81;5223446;28;20072;-67
2023/06/22 09:42:17;;;;;;;11.23;10.13;;;;;;;23.18;68.00;101461.47;5222366;28;20038;-67
2023/06/22 09:44:48;;;;;;;11.63;10.40;;;;;;;23.26;68.60;101453.09;5222710;28;20469;-67
2023/06/22 09:47:19;;;;;;;15.13;10.27;;;;;;;23.19;66.19;101460.56;5222472;28;20113;-66
2023/06/22 09:49:51;;;;;;;12.90;10.10;;;;;;;23.27;66.05;101455.66;5222106;28;20446;-67
2023/06/22 09:52:22;;;;;;;12.67;10.67;;;;;;;23.15;67.23;101444.84;5221031;28;20038;-66
2023/06/22 09:54:54;;;;;;;11.27;10.07;;;;;;;23.15;67.51;101456.31;5221876;28;20054;-67
2023/06/22 09:57:25;;;;;;;12.13;9.63;;;;;;;23.02;66.76;101447.28;5221710;28;20113;-67
2023/06/22 09:59:56;;;;;;;12.60;9.57;;;;;;;23.00;68.37;101449.19;5222137;28;20481;-67
2023/06/22 10:02:29;;;;;;;10.73;9.47;;;;;;;22.92;70.65;101449.59;5222152;28;20424;-66
2023/06/22 10:05:01;;;;;;;10.70;8.90;;;;;;;22.95;69.17;101441.44;5221202;28;20038;-67
2023/06/22 10:07:32;;;;;;;11.32;10.15;;;;;;;22.93;67.53;101446.00;5221343;28;20061;-66
2023/06/22 10:10:04;;;;;;;13.20;9.73;;;;;;;22.80;68.90;101448.47;5222021;28;20042;-67
2023/06/22 10:12:36;;;;;;;11.13;10.10;;;;;;;22.76;68.65;101439.81;5222454;28;20080;-66
2023/06/22 10:15:07;;;;;;;10.80;9.70;;;;;;;22.71;68.87;101446.28;5221636;28;20045;-66
2023/06/22 10:17:39;;;;;;;13.43;10.63;;;;;;;22.73;68.92;101444.41;5221993;28;20034;-66
2023/06/22 10:20:11;;;;;;;10.53;9.53;;;;;;;22.77;69.85;101451.28;5222065;28;20076;-65
2023/06/22 10:22:44;;;;;;;14.38;10.73;;;;;;;22.72;70.21;101440.03;5222422;28;20128;-65
2023/06/22 10:25:15;;;;;;;11.48;9.80;;;;;;;22.61;69.62;101440.59;5221627;28;20030;-65
2023/06/22 10:27:46;;;;;;;11.63;10.53;;;;;;;22.61;68.55;101445.06;5221687;28;20029;-65
2023/06/22 10:30:18;;;;;;;11.50;10.37;;;;;;;22.65;69.94;101454.59;5221248;28;20372;-65
2023/06/22 10:32:49;;;;;;;12.60;11.33;;;;;;;22.63;70.82;101453.81;5221509;28;20100;-66
2023/06/22 10:35:21;;;;;;;12.80;11.60;;;;;;;22.57;70.21;101455.88;5220421;28;20081;-65
2023/06/22 10:37:52;;;;;;;13.40;11.77;;;;;;;22.39;73.46;101467.44;5221585;28;20364;-65
2023/06/22 10:40:24;;;;;;;14.33;12.87;;;;;;;22.34;75.69;101464.16;5222263;28;20026;-66
2023/06/22 10:42:55;;;;;;;13.57;12.20;;;;;;;22.30;76.58;101465.25;5221303;28;20277;-66
2023/06/22 10:45:27;;;;;;;14.17;12.80;;;;;;;22.35;77.39;101472.06;5221525;28;20483;-65
2023/06/22 10:47:59;;;;;;;16.13;13.32;;;;;;;22.35;78.23;101476.50;5221423;28;20037;-65
2023/06/22 10:50:30;;;;;;;14.77;13.27;;;;;;;22.34;80.19;101475.63;5221628;28;20033;-65
2023/06/22 10:53:01;;;;;;;14.77;13.37;;;;;;;22.30;80.70;101484.72;5222125;28;20040;-66
2023/06/22 10:55:33;;;;;;;16.47;14.60;;;;;;;22.23;78.91;101488.56;5220948;28;20030;-66
2023/06/22 10:58:04;;;;;;;14.30;13.00;;;;;;;22.06;84.31;101478.81;5219955;28;20457;-66
2023/06/22 11:00:36;;;;;;;15.70;13.47;;;;;;;21.90;84.45;101476.06;5221830;28;20442;-66
2023/06/22 11:03:08;;;;;;;18.55;14.50;;;;;;;21.78;88.24;101479.31;5203847;28;20360;-66
2023/06/22 11:05:40;;;;;;;17.13;15.33;;;;;;;21.92;89.71;101478.66;5220025;28;20026;-66
2023/06/22 11:08:11;;;;;;;16.50;15.02;;;;;;;21.82;93.28;101476.44;5220579;28;20117;-66
2023/06/22 11:10:43;;;;;;;18.37;16.67;;;;;;;21.69;90.24;101485.94;5220262;28;20476;-65
2023/06/22 11:13:14;;;;;;;;;;;;;;;22.01;87.07;101491.47;5221647;28;20469;-65
2023/06/22 11:15:46;;;;;;;19.10;17.20;;;;;;;21.62;92.40;101481.84;5221233;28;19975;-65
2023/06/22 11:18:17;;;;;;;18.87;17.17;;;;;;;21.42;93.72;101486.28;5221537;28;20069;-66
2023/06/22 11:20:49;;;;;;;20.47;18.50;;;;;;;21.46;95.64;101482.56;5220882;28;20076;-66
2023/06/22 11:23:20;;;;;;;18.52;16.60;;;;;;;21.45;96.85;101479.97;5221106;28;20045;-66
2023/06/22 11:25:52;;;;;;;19.60;17.77;;;;;;;21.40;95.82;101489.97;5220772;28;20066;-66
2023/06/22 11:28:23;;;;;;;19.33;17.53;;;;;;;21.28;94.73;101489.59;5221597;28;20299;-66
2023/06/22 11:30:54;;;;;;;21.47;19.47;;;;;;;21.22;98.25;101495.19;5221012;28;20026;-66
2023/06/22 11:33:26;;;;;;;20.27;18.20;;;;;;;21.18;99.99;101488.28;5219798;28;20478;-65
2023/06/22 11:35:57;;;;;;;22.27;20.03;;;;;;;21.10;100.00;101490.44;5221094;28;20038;-66